createdAt,value
2018-12-01T00:00:57.569Z,96.96
2018-12-01T00:03:32.405Z,96.75
2018-12-01T00:06:18.725Z,97.05
2018-12-01T00:08:48.393Z,96.64
2018-12-01T00:11:18.049Z,97.01
2018-12-01T00:13:47.824Z,96.95
2018-12-01T00:16:17.536Z,96.34
2018-12-01T00:18:47.141Z,96.25
2018-12-01T00:21:16.804Z,96.88
2018-12-01T00:23:49.199Z,96.73
2018-12-01T00:26:16.106Z,96.58
2018-12-01T00:28:45.769Z,96.67
2018-12-01T00:31:15.430Z,96.60
2018-12-01T00:33:45.080Z,96.17
2018-12-01T00:36:14.789Z,96.24
2018-12-01T00:38:44.511Z,96.60
2018-12-01T00:41:14.192Z,96.92
2018-12-01T00:43:43.843Z,96.76
2018-12-01T00:46:13.500Z,96.60
2018-12-01T00:48:43.149Z,97.25
2018-12-01T00:51:12.805Z,96.57
2018-12-01T00:53:42.456Z,97.12
2018-12-01T00:56:12.120Z,96.75
2018-12-01T00:58:41.776Z,96.67
2018-12-01T01:01:11.450Z,96.59
2018-12-01T01:03:41.100Z,97.18
2018-12-01T01:06:10.789Z,96.89
2018-12-01T01:08:40.473Z,96.99
2018-12-01T01:11:10.151Z,96.66
2018-12-01T01:13:39.830Z,96.79
2018-12-01T01:16:22.080Z,96.48
2018-12-01T01:18:51.757Z,96.91
2018-12-01T01:21:21.433Z,96.86
2018-12-01T01:23:51.229Z,96.49
2018-12-01T01:26:20.909Z,96.55
2018-12-01T01:28:50.585Z,97.12
2018-12-01T01:31:20.262Z,97.10
2018-12-01T01:33:50.094Z,96.64
2018-12-01T01:36:19.773Z,96.60
2018-12-01T01:38:49.457Z,96.09
2018-12-01T01:41:19.137Z,96.16
2018-12-01T01:43:49.212Z,96.15
2018-12-01T01:46:18.889Z,96.18
2018-12-01T01:48:48.580Z,96.05
2018-12-01T01:51:18.256Z,95.90
2018-12-01T01:53:48.267Z,96.07
2018-12-01T01:56:17.985Z,96.30
2018-12-01T01:58:47.665Z,96.37
2018-12-01T02:01:17.350Z,96.13
2018-12-01T02:03:47.022Z,94.99
2018-12-01T02:06:16.706Z,94.68
2018-12-01T02:08:46.514Z,95.16
2018-12-01T02:11:16.186Z,94.76
2018-12-01T02:13:45.841Z,94.57
2018-12-01T02:16:15.518Z,94.88
2018-12-01T02:18:45.189Z,94.80
2018-12-01T02:21:14.882Z,95.05
2018-12-01T02:23:44.558Z,95.45
2018-12-01T02:26:14.229Z,95.11
2018-12-01T02:28:43.893Z,95.65
2018-12-01T02:31:13.625Z,95.76
2018-12-01T02:33:43.294Z,96.05
2018-12-01T02:36:12.976Z,95.85
2018-12-01T02:38:42.626Z,96.00
2018-12-01T02:41:12.297Z,96.11
2018-12-01T02:43:41.966Z,96.04
2018-12-01T02:46:22.974Z,96.23
2018-12-01T02:48:53.086Z,96.38
2018-12-01T02:51:22.762Z,95.86
2018-12-01T02:53:52.466Z,96.26
2018-12-01T02:56:22.141Z,95.93
2018-12-01T02:58:51.825Z,95.55
2018-12-01T03:01:21.493Z,95.88
2018-12-01T03:03:51.160Z,95.78
2018-12-01T03:06:20.840Z,96.01
2018-12-01T03:08:51.335Z,95.27
2018-12-01T03:11:21.025Z,95.23
2018-12-01T03:13:50.705Z,95.83
2018-12-01T03:16:20.489Z,95.18
2018-12-01T03:18:50.170Z,95.62
2018-12-01T03:21:19.831Z,95.48
2018-12-01T03:23:49.513Z,95.04
2018-12-01T03:26:19.201Z,95.40
2018-12-01T03:28:48.873Z,96.02
2018-12-01T03:31:18.533Z,96.79
2018-12-01T03:33:48.208Z,96.46
2018-12-01T03:36:17.945Z,95.99
2018-12-01T03:38:47.629Z,96.54
2018-12-01T03:41:17.294Z,96.77
2018-12-01T03:43:46.974Z,96.81
2018-12-01T03:46:16.640Z,97.34
2018-12-01T03:48:46.309Z,97.11
2018-12-01T03:51:15.969Z,96.17
2018-12-01T03:53:45.649Z,95.61
2018-12-01T03:56:15.329Z,94.95
2018-12-01T03:58:44.992Z,94.86
2018-12-01T04:01:14.651Z,95.58
2018-12-01T04:03:44.325Z,95.36
2018-12-01T04:06:13.993Z,95.45
2018-12-01T04:08:43.668Z,96.20
2018-12-01T04:11:13.686Z,96.04
2018-12-01T04:13:43.381Z,96.25
2018-12-01T04:16:13.049Z,96.31
2018-12-01T04:18:43.165Z,96.49
2018-12-01T04:21:12.880Z,95.20
2018-12-01T04:23:42.540Z,95.40
2018-12-01T04:26:12.204Z,94.83
2018-12-01T04:28:42.060Z,94.29
2018-12-01T04:31:11.733Z,93.69
2018-12-01T04:33:41.418Z,94.38
2018-12-01T04:36:11.088Z,94.46
2018-12-01T04:38:41.205Z,94.40
2018-12-01T04:41:10.873Z,93.28
2018-12-01T04:43:40.558Z,94.60
2018-12-01T04:46:10.233Z,94.45
2018-12-01T04:48:40.064Z,95.16
2018-12-01T04:51:09.733Z,94.07
2018-12-01T04:56:15.452Z,94.33
2018-12-01T04:58:45.153Z,94.11
2018-12-01T05:01:14.853Z,94.55
2018-12-01T05:03:44.775Z,94.61
2018-12-01T05:06:14.561Z,94.62
2018-12-01T05:08:44.301Z,94.42
2018-12-01T05:11:14.021Z,94.74
2018-12-01T05:13:43.736Z,95.48
2018-12-01T05:16:13.508Z,95.51
2018-12-01T05:18:43.273Z,94.83
2018-12-01T05:21:13.009Z,95.01
2018-12-01T05:23:42.771Z,95.75
2018-12-01T05:26:12.512Z,95.96
2018-12-01T05:28:42.262Z,95.60
2018-12-01T05:31:12.084Z,96.43
2018-12-01T05:33:41.817Z,96.87
2018-12-01T05:36:12.124Z,96.31
2018-12-01T05:38:42.685Z,96.60
2018-12-01T05:41:12.418Z,96.18
2018-12-01T05:43:42.104Z,95.88
2018-12-01T05:46:11.925Z,96.11
2018-12-01T05:48:41.689Z,95.98
2018-12-01T05:51:11.517Z,95.55
2018-12-01T05:53:41.210Z,95.42
2018-12-01T05:56:10.963Z,95.78
2018-12-01T05:58:40.667Z,95.70
2018-12-01T06:01:12.389Z,95.82
2018-12-01T06:03:42.138Z,95.91
2018-12-01T06:06:12.409Z,95.52
2018-12-01T06:08:42.177Z,96.24
2018-12-01T06:11:12.286Z,95.95
2018-12-01T06:13:42.008Z,95.88
2018-12-01T06:16:11.809Z,95.96
2018-12-01T06:18:41.630Z,96.23
2018-12-01T06:21:11.325Z,96.31
2018-12-01T06:23:41.193Z,96.40
2018-12-01T06:26:11.005Z,96.70
2018-12-01T06:28:41.094Z,96.36
2018-12-01T06:31:10.810Z,96.06
2018-12-01T06:33:40.601Z,96.17
2018-12-01T06:36:10.813Z,96.58
2018-12-01T06:38:40.547Z,96.32
2018-12-01T06:41:10.221Z,96.12
2018-12-01T06:43:39.973Z,95.33
2018-12-01T06:46:09.660Z,96.06
2018-12-01T06:48:39.346Z,95.58
2018-12-01T06:51:09.110Z,95.96
2018-12-01T06:53:38.919Z,95.76
2018-12-01T06:56:08.601Z,95.61
2018-12-01T06:58:38.331Z,96.00
2018-12-01T07:01:08.049Z,96.41
2018-12-01T07:03:37.740Z,96.51
2018-12-01T07:06:07.470Z,96.60
2018-12-01T07:08:37.182Z,96.59
2018-12-01T07:11:06.893Z,96.77
2018-12-01T07:13:36.657Z,96.10
2018-12-01T07:16:06.524Z,96.13
2018-12-01T07:18:47.626Z,95.51
2018-12-01T07:21:17.310Z,95.23
2018-12-01T07:23:47.117Z,94.78
2018-12-01T07:26:16.818Z,95.08
2018-12-01T07:28:46.637Z,94.75
2018-12-01T07:31:16.420Z,95.18
2018-12-01T07:33:46.093Z,95.42
2018-12-01T07:36:15.805Z,94.58
2018-12-01T07:38:45.713Z,94.47
2018-12-01T07:41:15.416Z,93.81
2018-12-01T07:43:45.099Z,94.38
2018-12-01T07:46:14.789Z,93.92
2018-12-01T07:48:44.465Z,92.99
2018-12-01T07:51:14.246Z,91.55
2018-12-01T07:53:44.005Z,91.55
2018-12-01T07:56:13.861Z,92.62
2018-12-01T07:58:43.672Z,92.66
2018-12-01T08:01:13.461Z,91.33
2018-12-01T08:03:43.156Z,90.90
2018-12-01T08:06:12.954Z,90.78
2018-12-01T08:08:42.621Z,90.60
2018-12-01T08:11:12.338Z,90.11
2018-12-01T08:13:42.021Z,88.86
2018-12-01T08:16:11.729Z,88.07
2018-12-01T08:18:41.406Z,88.16
2018-12-01T08:21:11.138Z,87.83
2018-12-01T08:23:40.971Z,87.23
2018-12-01T08:26:10.699Z,88.75
2018-12-01T08:28:40.917Z,89.24
2018-12-01T08:31:10.708Z,89.75
2018-12-01T08:33:40.397Z,88.32
2018-12-01T08:36:10.173Z,89.17
2018-12-01T08:38:40.101Z,89.10
2018-12-01T08:41:09.884Z,88.68
2018-12-01T08:43:39.592Z,89.82
2018-12-01T08:46:09.362Z,88.15
2018-12-01T08:48:39.965Z,88.05
2018-12-01T08:51:09.693Z,87.93
2018-12-01T08:53:39.361Z,86.41
2018-12-01T08:56:09.062Z,87.27
2018-12-01T08:58:38.779Z,86.57
2018-12-01T09:01:08.461Z,86.68
2018-12-01T09:03:38.138Z,87.02
2018-12-01T09:06:07.913Z,87.16
2018-12-01T09:08:37.740Z,87.18
2018-12-01T09:11:07.478Z,87.42
2018-12-01T09:13:37.153Z,87.11
2018-12-01T09:16:07.585Z,90.37
2018-12-01T09:18:37.340Z,88.85
2018-12-01T09:21:06.995Z,87.41
2018-12-01T09:23:36.673Z,89.35
2018-12-01T09:26:06.350Z,87.53
2018-12-01T09:28:36.117Z,88.18
2018-12-01T09:31:05.953Z,88.51
2018-12-01T09:33:35.646Z,88.32
2018-12-01T09:36:05.452Z,87.91
2018-12-01T09:38:35.145Z,88.49
2018-12-01T09:41:05.101Z,86.88
2018-12-01T09:43:34.797Z,87.61
2018-12-01T09:46:04.487Z,87.85
2018-12-01T09:48:34.317Z,88.05
2018-12-01T09:51:03.988Z,88.23
2018-12-01T09:53:33.737Z,87.55
2018-12-01T09:56:03.422Z,87.92
2018-12-01T09:58:33.164Z,88.41
2018-12-01T10:01:02.872Z,89.30
2018-12-01T10:03:32.546Z,88.93
2018-12-01T10:06:02.260Z,88.88
2018-12-01T10:08:32.125Z,88.59
2018-12-01T10:11:01.969Z,89.44
2018-12-01T10:13:31.641Z,88.92
2018-12-01T10:16:01.326Z,89.28
2018-12-01T10:18:31.053Z,89.27
2018-12-01T10:21:00.782Z,89.79
2018-12-01T10:23:30.578Z,90.15
2018-12-01T10:26:00.333Z,89.16
2018-12-01T10:28:30.128Z,87.94
2018-12-01T10:30:59.904Z,88.74
2018-12-01T10:33:29.625Z,89.10
2018-12-01T10:35:59.346Z,87.95
2018-12-01T10:38:29.124Z,88.41
2018-12-01T10:40:58.873Z,90.18
2018-12-01T10:43:28.561Z,86.97
2018-12-01T10:45:58.442Z,87.36
2018-12-01T10:48:28.122Z,88.01
2018-12-01T10:50:57.849Z,87.23
2018-12-01T10:53:27.520Z,86.08
2018-12-01T10:55:57.237Z,86.50
2018-12-01T10:58:26.937Z,85.94
2018-12-01T11:01:02.138Z,85.62
2018-12-01T11:03:37.153Z,85.68
2018-12-01T11:06:12.897Z,85.03
2018-12-01T11:08:42.606Z,84.73
2018-12-01T11:11:12.341Z,84.72
2018-12-01T11:13:42.013Z,85.42
2018-12-01T11:16:11.733Z,86.00
2018-12-01T11:18:41.514Z,85.91
2018-12-01T11:21:11.246Z,87.41
2018-12-01T11:23:44.986Z,86.62
2018-12-01T11:26:20.434Z,87.42
2018-12-01T11:28:56.592Z,87.31
2018-12-01T11:31:30.821Z,87.42
2018-12-01T11:34:08.202Z,86.58
2018-12-01T11:36:47.845Z,86.70
2018-12-01T11:39:23.086Z,86.68
2018-12-01T11:42:05.483Z,86.20
2018-12-01T11:44:41.962Z,86.64
2018-12-01T11:47:16.676Z,87.62
2018-12-01T11:49:50.854Z,85.97
2018-12-01T11:52:24.516Z,86.13
2018-12-01T11:55:01.797Z,85.94
2018-12-01T11:57:36.218Z,84.72
2018-12-01T12:03:14.748Z,85.23
2018-12-01T12:05:51.315Z,86.77
2018-12-01T12:08:26.977Z,82.74
2018-12-01T12:11:04.059Z,83.99
2018-12-01T12:13:41.961Z,82.86
2018-12-01T12:16:19.455Z,83.56
2018-12-01T12:18:55.309Z,83.12
2018-12-01T12:21:31.983Z,83.16
2018-12-01T12:24:14.971Z,82.62
2018-12-01T12:26:49.324Z,82.59
2018-12-01T12:29:30.564Z,82.29
2018-12-01T12:32:12.033Z,81.19
2018-12-01T12:34:53.506Z,81.42
2018-12-01T12:37:31.373Z,81.74
2018-12-01T12:40:09.481Z,80.54
2018-12-01T12:42:50.982Z,80.92
2018-12-01T12:45:28.166Z,81.86
2018-12-01T12:48:05.429Z,81.35
2018-12-01T12:50:53.243Z,80.87
2018-12-01T12:53:26.081Z,81.25
2018-12-01T12:56:00.595Z,81.48
2018-12-01T12:58:40.546Z,81.70
2018-12-01T13:01:16.270Z,81.66
2018-12-01T13:03:52.972Z,82.28
2018-12-01T13:06:28.028Z,81.14
2018-12-01T13:09:07.753Z,81.75
2018-12-01T13:11:47.394Z,81.57
2018-12-01T13:14:24.376Z,81.26
2018-12-01T13:17:04.214Z,80.69
2018-12-01T13:19:42.126Z,80.76
2018-12-01T13:22:20.233Z,80.27
2018-12-01T13:25:03.256Z,80.09
2018-12-01T13:27:40.953Z,78.95
2018-12-01T13:30:21.826Z,79.42
2018-12-01T13:33:03.415Z,80.81
2018-12-01T13:35:45.823Z,81.40
2018-12-01T13:38:22.670Z,80.71
2018-12-01T13:40:58.661Z,80.56
2018-12-01T13:43:39.940Z,80.38
2018-12-01T13:46:16.310Z,80.22
2018-12-01T13:48:55.642Z,80.32
2018-12-01T13:51:33.442Z,79.92
2018-12-01T13:54:09.706Z,80.27
2018-12-01T13:56:47.302Z,80.38
2018-12-01T13:59:21.684Z,79.60
2018-12-01T14:01:59.313Z,77.97
2018-12-01T14:04:53.399Z,79.10
2018-12-01T14:07:31.885Z,79.17
2018-12-01T14:10:24.761Z,79.94
2018-12-01T14:13:14.713Z,80.27
2018-12-01T14:15:50.615Z,80.60
2018-12-01T14:18:30.769Z,80.51
2018-12-01T14:21:07.397Z,80.88
2018-12-01T14:23:48.380Z,81.66
2018-12-01T14:26:25.043Z,81.79
2018-12-01T14:29:01.063Z,81.62
2018-12-01T14:31:37.161Z,81.33
2018-12-01T14:34:15.152Z,82.33
2018-12-01T14:36:55.537Z,82.23
2018-12-01T14:39:31.686Z,82.60
2018-12-01T14:42:15.937Z,82.52
2018-12-01T14:44:52.930Z,83.08
2018-12-01T14:47:31.993Z,82.00
2018-12-01T14:50:11.296Z,82.36
2018-12-01T14:52:48.671Z,82.82
2018-12-01T14:55:30.615Z,82.86
2018-12-01T14:58:07.387Z,83.18
2018-12-01T15:00:41.880Z,82.87
2018-12-01T15:03:18.537Z,82.30
2018-12-01T15:06:00.831Z,82.51
2018-12-01T15:08:37.279Z,82.95
2018-12-01T15:11:16.801Z,82.36
2018-12-01T15:14:01.529Z,82.77
2018-12-01T15:16:41.635Z,83.21
2018-12-01T15:19:17.982Z,82.87
2018-12-01T15:22:03.325Z,82.52
2018-12-01T15:24:40.256Z,83.18
2018-12-01T15:27:15.015Z,84.35
2018-12-01T15:29:52.406Z,82.88
2018-12-01T15:32:31.557Z,82.17
2018-12-01T15:35:25.210Z,83.76
2018-12-01T15:38:14.635Z,83.21
2018-12-01T15:40:58.850Z,83.27
2018-12-01T15:43:36.993Z,82.97
2018-12-01T15:46:15.657Z,82.52
2018-12-01T15:48:52.046Z,83.55
2018-12-01T15:51:31.906Z,83.12
2018-12-01T15:54:10.922Z,82.57
2018-12-01T15:56:47.859Z,82.36
2018-12-01T15:59:26.541Z,83.77
2018-12-01T16:02:08.511Z,82.65
2018-12-01T16:04:51.579Z,82.79
2018-12-01T16:08:34.161Z,84.32
2018-12-01T16:11:19.335Z,83.22
2018-12-01T16:13:58.956Z,83.93
2018-12-01T16:16:39.419Z,82.99
2018-12-01T16:19:17.893Z,82.64
2018-12-01T16:21:56.988Z,82.28
2018-12-01T16:24:34.555Z,82.34
2018-12-01T16:27:12.791Z,82.08
2018-12-01T16:29:51.755Z,82.59
2018-12-01T16:32:28.349Z,82.62
2018-12-01T16:35:03.017Z,82.78
2018-12-01T16:37:37.819Z,83.91
2018-12-01T16:40:20.294Z,82.98
2018-12-01T16:42:55.070Z,83.40
2018-12-01T16:45:35.343Z,82.93
2018-12-01T16:48:14.210Z,83.40
2018-12-01T16:50:49.752Z,82.96
2018-12-01T16:53:29.667Z,81.81
2018-12-01T16:56:06.234Z,82.28
2018-12-01T16:58:41.105Z,82.28
2018-12-01T17:01:21.118Z,82.84
2018-12-01T17:04:00.801Z,81.52
2018-12-01T17:06:41.226Z,81.82
2018-12-01T17:09:18.818Z,81.65
2018-12-01T17:11:57.373Z,81.43
2018-12-01T17:14:34.386Z,81.96
2018-12-01T17:17:14.675Z,80.71
2018-12-01T17:19:56.408Z,80.41
2018-12-01T17:22:38.126Z,80.18
2018-12-01T17:25:14.553Z,80.13
2018-12-01T17:27:49.123Z,80.87
2018-12-01T17:30:26.890Z,80.32
2018-12-01T17:33:04.286Z,80.17
2018-12-01T17:35:43.014Z,80.63
2018-12-01T17:38:22.182Z,80.15
2018-12-01T17:41:22.080Z,80.70
2018-12-01T17:44:10.918Z,80.35
2018-12-01T17:46:47.612Z,80.16
2018-12-01T17:49:26.724Z,80.30
2018-12-01T17:52:12.079Z,80.40
2018-12-01T17:54:50.624Z,79.93
2018-12-01T17:57:33.247Z,80.37
2018-12-01T18:00:11.560Z,80.33
2018-12-01T18:02:48.334Z,79.88
2018-12-01T18:05:35.042Z,79.68
2018-12-01T18:08:17.143Z,80.08
2018-12-01T18:11:03.749Z,79.47
2018-12-01T18:13:40.724Z,80.26
2018-12-01T18:16:24.571Z,80.23
2018-12-01T18:18:58.973Z,80.81
2018-12-01T18:21:33.714Z,81.65
2018-12-01T18:24:08.549Z,82.28
2018-12-01T18:26:41.944Z,82.65
2018-12-01T18:29:19.228Z,82.84
2018-12-01T18:31:54.572Z,82.82
2018-12-01T18:34:36.023Z,83.07
2018-12-01T18:37:14.991Z,84.59
2018-12-01T18:39:50.944Z,84.03
2018-12-01T18:42:26.593Z,83.41
2018-12-01T18:45:03.720Z,83.98
2018-12-01T18:47:40.861Z,83.94
2018-12-01T18:50:21.060Z,83.50
2018-12-01T18:53:01.788Z,83.57
2018-12-01T18:55:40.300Z,83.32
2018-12-01T18:58:15.337Z,83.57
2018-12-01T19:00:52.100Z,83.47
2018-12-01T19:03:32.473Z,84.27
2018-12-01T19:06:07.508Z,83.12
2018-12-01T19:08:43.051Z,82.66
2018-12-01T19:11:20.242Z,81.80
2018-12-01T19:13:55.988Z,82.24
2018-12-01T19:16:31.530Z,81.21
2018-12-01T19:19:04.616Z,79.62
2018-12-01T19:21:41.202Z,80.16
2018-12-01T19:24:16.442Z,80.34
2018-12-01T19:26:56.392Z,79.86
2018-12-01T19:29:29.280Z,80.55
2018-12-01T19:32:07.385Z,79.35
2018-12-01T19:34:44.264Z,79.44
2018-12-01T19:37:24.930Z,79.24
2018-12-01T19:40:00.887Z,78.82
2018-12-01T19:42:37.867Z,78.43
2018-12-01T19:45:20.777Z,78.24
2018-12-01T19:47:57.707Z,78.08
2018-12-01T19:50:38.272Z,77.52
2018-12-01T19:53:18.386Z,75.35
2018-12-01T19:59:02.486Z,77.15
2018-12-01T20:01:55.205Z,75.82
2018-12-01T20:04:45.586Z,74.68
2018-12-01T20:07:30.554Z,73.69
2018-12-01T20:10:05.745Z,74.21
2018-12-01T20:12:49.020Z,74.38
2018-12-01T20:16:05.239Z,73.71
2018-12-01T20:18:52.472Z,73.22
2018-12-01T20:21:36.030Z,73.30
2018-12-01T20:24:18.689Z,72.75
2018-12-01T20:26:59.670Z,71.91
2018-12-01T20:29:51.468Z,72.31
2018-12-01T20:32:30.418Z,71.88
2018-12-01T20:35:08.120Z,72.23
2018-12-01T20:37:40.852Z,70.74
2018-12-01T20:40:21.482Z,70.36
2018-12-01T20:42:58.954Z,73.32
2018-12-01T20:45:32.964Z,70.88
2018-12-01T20:48:06.873Z,69.98
2018-12-01T20:50:43.966Z,70.00
2018-12-01T20:53:20.833Z,71.18
2018-12-01T20:56:00.177Z,69.51
2018-12-01T20:58:39.306Z,68.61
2018-12-01T21:01:28.295Z,70.98
2018-12-01T21:04:08.169Z,69.52
2018-12-01T21:06:47.096Z,69.25
2018-12-01T21:09:21.261Z,69.04
2018-12-01T21:11:59.078Z,68.73
2018-12-01T21:14:39.728Z,69.45
2018-12-01T21:17:16.218Z,69.32
2018-12-01T21:19:51.837Z,69.43
2018-12-01T21:22:32.321Z,69.25
2018-12-01T21:25:15.960Z,69.12
2018-12-01T21:27:51.202Z,70.19
2018-12-01T21:30:33.478Z,69.61
2018-12-01T21:33:21.228Z,68.88
2018-12-01T21:35:57.285Z,68.91
2018-12-01T21:38:37.389Z,69.81
2018-12-01T21:41:23.315Z,69.22
2018-12-01T21:44:05.841Z,68.50
2018-12-01T21:46:52.446Z,68.70
2018-12-01T21:49:41.975Z,69.46
2018-12-01T21:52:20.867Z,69.61
2018-12-01T21:55:17.504Z,70.44
2018-12-01T21:57:55.372Z,69.72
2018-12-01T22:00:34.419Z,69.96
2018-12-01T22:03:19.997Z,69.87
2018-12-01T22:06:03.737Z,71.71
2018-12-01T22:08:42.684Z,71.27
2018-12-01T22:11:25.794Z,70.94
2018-12-01T22:14:02.773Z,69.76
2018-12-01T22:16:45.095Z,68.00
2018-12-01T22:19:24.706Z,68.13
2018-12-01T22:22:06.391Z,67.85
2018-12-01T22:24:54.162Z,67.72
2018-12-01T22:27:30.717Z,68.79
2018-12-01T22:30:12.938Z,67.73
2018-12-01T22:32:52.052Z,67.99
2018-12-01T22:35:31.610Z,66.92
2018-12-01T22:38:10.977Z,67.45
2018-12-01T22:40:46.594Z,66.77
2018-12-01T22:43:23.048Z,67.59
2018-12-01T22:46:06.706Z,68.39
2018-12-01T22:48:49.680Z,66.79
2018-12-01T22:51:28.578Z,66.87
2018-12-01T22:54:05.426Z,66.30
2018-12-01T22:56:50.147Z,67.30
2018-12-01T22:59:29.919Z,67.56
2018-12-01T23:02:15.708Z,66.97
2018-12-01T23:04:52.396Z,66.37
2018-12-01T23:07:27.411Z,66.79
2018-12-01T23:10:14.123Z,66.81
2018-12-01T23:12:51.970Z,66.68
2018-12-01T23:15:33.685Z,67.04
2018-12-01T23:18:13.524Z,67.15
2018-12-01T23:20:51.104Z,67.00
2018-12-01T23:23:24.762Z,67.93
2018-12-01T23:26:03.093Z,68.05
2018-12-01T23:28:39.764Z,66.80
2018-12-01T23:31:15.648Z,68.23
2018-12-01T23:33:51.506Z,68.70
2018-12-01T23:36:27.256Z,68.36
2018-12-01T23:39:05.313Z,69.47
2018-12-01T23:41:41.188Z,69.98
2018-12-01T23:44:27.313Z,70.47
2018-12-01T23:47:12.996Z,69.34
2018-12-01T23:49:55.627Z,70.21
2018-12-01T23:52:40.428Z,69.08
2018-12-01T23:55:21.671Z,69.55
2018-12-01T23:58:04.733Z,69.41
